VIP Ground Handling & Aviation Services

 

 
Airport

KOS (KGS)

Ground Handling Services – KGS/LGKO

VIP Ground Handling

State Ground Handling

Military Ground Handling

Slot & PPR Coordination

Fuel Arrangements

Crew Accommodation Arrangements

Crew Transportation

Customs & Immigration Assistance

Executive Terminal Services

Crew Lounge

Flight Planning, Weather Briefing and NOTAMs

Catering Arrangements

Security Services

Aircraft Maintenance

Airport Customs & Immigration

Concierge Services

VIP Meet & Greet

Helicopter Transfers

Chauffeur Services

Aircraft Charter

Yacht Charter

Hire & Rental

Entertainment & Hospitality

Health & Beauty

Delivery Services

Conference & Meeting rooms

Kos International Airport ``Hippocrates``, Antimachia 853 02

+30 210 35 33 331 (24/7)

+30 694 6200 300 (24/7)

greece@alphajetservices.com

Kos Airport
Airport Type
• Civil
Operating Hours
•24H
Fuel Available
•JET A1
Fire Category
•8
Approaches
•VOR / DME NDB
Available data for LGKO from the past 2 hours
KOS AIRPORT
Metar
LGKO 260950Z 30011KT 270V340 CAVOK 30/21 Q1010

09:50 UTC

Wind: 300° 11kt

Visibility:

Sky:

Temp: 30 deg C / 86 deg F

Dewpoint: 21 deg C / 69.8 deg F

Pressure: 1010 hPa

TAF
TAF LGKO 260500Z 2606/2706 31012KT 9999 FEW025